createdAt,value
2023-08-14T00:01:32.074Z,5.10
2023-08-14T00:06:34.986Z,4.80
2023-08-14T00:11:37.859Z,4.80
2023-08-14T00:16:40.772Z,4.80
2023-08-14T00:21:43.746Z,5.10
2023-08-14T00:26:46.713Z,4.50
2023-08-14T00:31:49.543Z,4.40
2023-08-14T00:36:52.675Z,4.70
2023-08-14T00:41:55.937Z,4.30
2023-08-14T00:46:58.946Z,4.60
2023-08-14T00:52:01.911Z,4.80
2023-08-14T00:57:05.056Z,4.60
2023-08-14T01:02:08.037Z,4.60
2023-08-14T01:07:11.059Z,4.60
2023-08-14T01:13:01.481Z,4.60
2023-08-14T01:18:05.000Z,5.40
2023-08-14T01:23:34.996Z,5.50
2023-08-14T01:28:37.958Z,5.10
2023-08-14T01:33:40.834Z,5.50
2023-08-14T01:38:57.955Z,5.20
2023-08-14T01:44:00.929Z,5.40
2023-08-14T01:49:04.156Z,5.10
2023-08-14T01:54:07.421Z,5.70
2023-08-14T01:59:10.420Z,5.30
2023-08-14T02:04:13.360Z,5.40
2023-08-14T02:09:16.239Z,5.30
2023-08-14T02:14:19.357Z,5.80
2023-08-14T02:19:22.362Z,6.00
2023-08-14T02:24:25.282Z,5.30
2023-08-14T02:29:28.103Z,5.40
2023-08-14T02:34:42.974Z,5.70
2023-08-14T02:39:46.207Z,5.80
2023-08-14T02:44:52.183Z,5.50
2023-08-14T02:49:55.376Z,5.30
2023-08-14T02:54:58.515Z,5.30
2023-08-14T03:00:01.391Z,5.50
2023-08-14T03:05:05.086Z,5.30
2023-08-14T03:10:08.407Z,5.50
2023-08-14T03:15:11.584Z,6.10
2023-08-14T03:20:14.757Z,5.90
2023-08-14T03:25:17.804Z,6.40
2023-08-14T03:30:20.670Z,6.60
2023-08-14T03:35:23.489Z,6.30
2023-08-14T03:40:26.450Z,6.30
2023-08-14T03:45:29.432Z,6.70
2023-08-14T03:50:34.653Z,7.10
2023-08-14T03:55:37.547Z,7.10
2023-08-14T04:00:40.443Z,7.20
2023-08-14T04:05:43.503Z,7.10
2023-08-14T04:10:46.659Z,8.50
2023-08-14T04:15:49.668Z,8.30
2023-08-14T04:20:52.601Z,9.00
2023-08-14T04:25:55.534Z,8.60
2023-08-14T04:30:58.630Z,8.70
2023-08-14T04:36:01.495Z,8.70
2023-08-14T04:41:04.353Z,9.30
2023-08-14T04:46:12.624Z,8.90
2023-08-14T04:51:15.847Z,9.10
2023-08-14T04:56:18.727Z,9.00
2023-08-14T05:01:21.753Z,9.00
2023-08-14T05:06:24.893Z,9.00
2023-08-14T05:11:27.758Z,8.80
2023-08-14T05:16:30.778Z,8.80
2023-08-14T05:21:33.903Z,9.90
2023-08-14T05:26:36.889Z,9.30
2023-08-14T05:31:39.846Z,8.90
2023-08-14T05:36:43.014Z,8.10
2023-08-14T05:41:45.913Z,7.90
2023-08-14T05:46:49.810Z,7.70
2023-08-14T05:51:53.162Z,7.50
2023-08-14T05:56:56.059Z,7.60
2023-08-14T06:02:00.523Z,7.20
2023-08-14T06:07:05.957Z,7.20
2023-08-14T06:12:09.198Z,7.20
2023-08-14T06:17:12.095Z,7.10
2023-08-14T06:22:17.267Z,7.00
2023-08-14T06:27:20.495Z,6.40
2023-08-14T06:32:23.392Z,6.70
2023-08-14T06:37:26.297Z,6.90
2023-08-14T06:42:29.408Z,7.00
2023-08-14T06:47:45.719Z,6.60
2023-08-14T06:52:48.949Z,5.80
2023-08-14T06:57:51.938Z,5.50
2023-08-14T07:02:54.997Z,4.80
2023-08-14T07:07:58.114Z,5.00
2023-08-14T07:13:01.029Z,4.80
2023-08-14T07:18:04.333Z,4.70
2023-08-14T07:23:07.243Z,5.20
2023-08-14T07:28:10.179Z,5.00
2023-08-14T07:33:15.047Z,4.50
2023-08-14T07:38:18.168Z,4.00
2023-08-14T07:43:21.091Z,3.90
2023-08-14T07:48:24.047Z,3.90
2023-08-14T07:53:26.938Z,4.10
2023-08-14T07:58:29.855Z,4.10
2023-08-14T08:03:32.777Z,3.40
2023-08-14T08:08:35.696Z,2.70
2023-08-14T08:13:38.593Z,2.50
2023-08-14T08:18:41.512Z,2.60
2023-08-14T08:23:44.536Z,2.80
2023-08-14T08:28:48.858Z,2.80
2023-08-14T08:33:51.964Z,2.60
2023-08-14T08:38:55.017Z,2.60
2023-08-14T08:44:45.158Z,2.50
2023-08-14T08:49:48.150Z,3.00
2023-08-14T08:54:51.038Z,3.20
2023-08-14T08:59:59.355Z,2.80
2023-08-14T09:05:16.211Z,3.60
2023-08-14T09:10:20.275Z,3.20
2023-08-14T09:15:25.717Z,3.20
2023-08-14T09:20:30.929Z,3.30
2023-08-14T09:25:34.330Z,3.50
2023-08-14T09:30:38.055Z,3.40
2023-08-14T09:35:42.709Z,3.60
2023-08-14T09:40:45.775Z,3.90
2023-08-14T09:45:50.546Z,3.30
2023-08-14T09:50:53.674Z,3.60
2023-08-14T09:55:58.313Z,4.10
2023-08-14T10:01:01.243Z,3.60
2023-08-14T10:06:06.967Z,4.00
2023-08-14T10:11:19.594Z,3.80
2023-08-14T10:16:25.382Z,3.90
2023-08-14T10:21:32.410Z,4.20
2023-08-14T10:26:35.633Z,4.10
2023-08-14T10:31:38.527Z,3.60
2023-08-14T10:36:41.577Z,3.70
2023-08-14T10:41:46.720Z,3.40
2023-08-14T10:46:49.859Z,3.10
2023-08-14T10:52:01.212Z,3.10
2023-08-14T10:57:07.545Z,2.90
2023-08-14T11:02:10.927Z,3.00
2023-08-14T11:07:14.136Z,2.60
2023-08-14T11:12:19.868Z,2.50
2023-08-14T11:17:28.410Z,2.60
2023-08-14T11:22:34.435Z,2.50
2023-08-14T11:27:37.768Z,2.70
2023-08-14T11:32:42.447Z,2.60
2023-08-14T11:37:59.967Z,2.70
2023-08-14T11:43:11.011Z,2.70
2023-08-14T11:48:27.863Z,2.00
2023-08-14T11:53:32.951Z,2.10
2023-08-14T11:58:42.071Z,2.00
2023-08-14T12:03:49.496Z,2.10
2023-08-14T12:08:52.438Z,2.40
2023-08-14T12:18:58.577Z,2.40
2023-08-14T12:24:01.884Z,2.20
2023-08-14T12:29:07.656Z,2.00
2023-08-14T12:34:14.931Z,2.00
2023-08-14T12:39:17.833Z,2.10
2023-08-14T12:44:20.734Z,2.10
2023-08-14T12:49:24.038Z,1.90
2023-08-14T12:54:29.530Z,2.00
2023-08-14T12:59:32.437Z,1.70
2023-08-14T13:04:36.447Z,1.80
2023-08-14T13:09:39.937Z,1.60
2023-08-14T13:14:42.863Z,2.10
2023-08-14T13:19:45.791Z,1.90
2023-08-14T13:29:56.625Z,2.00
2023-08-14T13:35:02.016Z,2.20
2023-08-14T13:40:08.052Z,2.20
2023-08-14T13:45:18.169Z,2.10
2023-08-14T13:50:34.931Z,2.30
2023-08-14T13:55:38.222Z,2.00
2023-08-14T14:00:43.579Z,1.90
2023-08-14T14:05:46.580Z,2.10
2023-08-14T14:10:49.572Z,2.10
2023-08-14T14:15:54.904Z,2.00
2023-08-14T14:20:58.399Z,2.30
2023-08-14T14:26:03.711Z,2.20
2023-08-14T14:31:11.393Z,2.20
2023-08-14T14:36:15.425Z,1.90
2023-08-14T14:41:18.320Z,2.00
2023-08-14T14:46:21.281Z,2.20
2023-08-14T14:51:24.468Z,1.80
2023-08-14T14:56:30.490Z,2.00
2023-08-14T15:01:33.549Z,2.10
2023-08-14T15:11:39.633Z,2.20
2023-08-14T15:16:44.120Z,2.50
2023-08-14T15:26:52.057Z,2.40
2023-08-14T15:31:55.301Z,2.80
2023-08-14T15:36:58.225Z,2.60
2023-08-14T15:42:01.437Z,2.70
2023-08-14T15:47:04.556Z,2.80
2023-08-14T15:52:07.478Z,3.00
2023-08-14T15:57:10.815Z,3.00
2023-08-14T16:02:13.880Z,2.70
2023-08-14T16:07:19.809Z,3.50
2023-08-14T16:12:24.499Z,3.50
2023-08-14T16:17:28.081Z,3.50
2023-08-14T16:22:33.264Z,3.50
2023-08-14T16:27:37.832Z,3.50
2023-08-14T16:32:41.215Z,3.60
2023-08-14T16:37:44.228Z,3.70
2023-08-14T16:42:47.680Z,3.40
2023-08-14T16:47:51.578Z,3.60
2023-08-14T16:52:55.128Z,4.20
2023-08-14T16:57:58.359Z,3.90
2023-08-14T17:03:03.778Z,3.90
2023-08-14T17:08:06.860Z,3.90
2023-08-14T17:13:09.679Z,4.40
2023-08-14T17:18:12.575Z,3.90
2023-08-14T17:23:19.933Z,4.40
2023-08-14T17:28:25.108Z,4.00
2023-08-14T17:33:31.066Z,4.00
2023-08-14T17:38:34.835Z,4.50
2023-08-14T17:43:37.687Z,4.10
2023-08-14T17:48:40.629Z,4.30
2023-08-14T17:53:43.591Z,4.80
2023-08-14T17:58:46.910Z,4.90
2023-08-14T18:03:50.026Z,4.60
2023-08-14T18:08:53.224Z,5.30
2023-08-14T18:13:56.176Z,4.80
2023-08-14T18:19:22.586Z,5.20
2023-08-14T18:24:22.380Z,5.30
2023-08-14T18:29:25.245Z,5.50
2023-08-14T18:34:28.069Z,5.30
2023-08-14T18:39:31.010Z,5.70
2023-08-14T18:44:33.924Z,5.60
2023-08-14T18:49:37.049Z,6.00
2023-08-14T18:54:43.026Z,5.90
2023-08-14T18:59:47.636Z,6.40
2023-08-14T19:04:50.667Z,7.20
2023-08-14T19:09:57.077Z,7.50
2023-08-14T19:15:00.020Z,7.60
2023-08-14T19:20:03.533Z,7.50
2023-08-14T19:25:07.080Z,7.70
2023-08-14T19:30:10.594Z,7.50
2023-08-14T19:35:13.618Z,7.80
2023-08-14T19:40:16.540Z,7.50
2023-08-14T19:45:19.641Z,7.00
2023-08-14T19:50:22.640Z,7.50
2023-08-14T19:55:26.653Z,7.40
2023-08-14T20:00:29.619Z,7.40
2023-08-14T20:05:32.605Z,7.30
2023-08-14T20:10:35.618Z,7.40
2023-08-14T20:15:46.046Z,7.20
2023-08-14T20:20:49.536Z,7.70
2023-08-14T20:25:52.836Z,7.60
2023-08-14T20:30:55.824Z,8.80
2023-08-14T20:35:58.821Z,9.00
2023-08-14T20:41:01.736Z,9.80
2023-08-14T20:46:04.682Z,10.30
2023-08-14T20:51:07.652Z,10.20
2023-08-14T20:56:10.713Z,9.70
2023-08-14T21:01:15.278Z,10.00
2023-08-14T21:06:18.764Z,10.10
2023-08-14T21:11:21.941Z,10.30
2023-08-14T21:16:24.819Z,10.40
2023-08-14T21:21:27.782Z,11.30
2023-08-14T21:26:31.369Z,12.30
2023-08-14T21:31:34.664Z,12.00
2023-08-14T21:36:39.746Z,11.50
2023-08-14T21:41:42.821Z,11.10
2023-08-14T21:46:46.875Z,10.90
2023-08-14T21:51:49.934Z,11.00
2023-08-14T21:56:53.258Z,10.80
2023-08-14T22:01:56.257Z,10.40
2023-08-14T22:06:59.171Z,9.80
2023-08-14T22:12:02.027Z,9.60
2023-08-14T22:17:05.142Z,10.50
2023-08-14T22:22:08.104Z,10.60
2023-08-14T22:27:11.112Z,10.50
2023-08-14T22:32:14.133Z,11.00
2023-08-14T22:37:16.962Z,10.70
2023-08-14T22:42:20.172Z,11.20
2023-08-14T22:47:23.324Z,11.70
2023-08-14T22:52:26.504Z,11.50
2023-08-14T22:57:29.412Z,10.50
2023-08-14T23:02:32.352Z,11.30
2023-08-14T23:07:35.957Z,11.90
2023-08-14T23:12:38.798Z,11.70
2023-08-14T23:17:41.715Z,12.20
2023-08-14T23:22:44.674Z,11.90
2023-08-14T23:27:47.592Z,12.00
2023-08-14T23:32:50.766Z,11.80
2023-08-14T23:37:53.853Z,11.90
2023-08-14T23:42:56.902Z,11.70
2023-08-14T23:47:59.927Z,11.80
2023-08-14T23:53:02.975Z,12.00
2023-08-14T23:58:05.928Z,11.80
